Time;durP1;ratioP1;P1;durP2;ratioP2;P2;SDS_P1;SDS_P2;PMS_P1;PMS_P2;Temp;Humidity;BMP_temperature;BMP_pressure;BME280_temperature;BME280_humidity;BME280_pressure;Samples;Min_cycle;Max_cycle;Signal;HPM_P1;HPM_P2
2024/01/12 00:00:16;;;;;;;;;;;19.40;46.80;;;;;;5019062;28;19926;-59
2024/01/12 00:02:41;;;;;;;;;;;19.30;46.70;;;;;;5020136;28;19929;-59
2024/01/12 00:05:07;;;;;;;;;;;19.30;46.60;;;;;;5019731;28;20373;-59
2024/01/12 00:07:33;;;;;;;;;;;19.30;46.70;;;;;;5019479;28;19992;-59
2024/01/12 00:09:58;;;;;;;;;;;19.30;46.70;;;;;;5019701;28;19926;-59
2024/01/12 00:12:24;;;;;;;;;;;19.30;46.60;;;;;;5019732;28;19929;-59
2024/01/12 00:14:50;;;;;;;;;;;19.30;46.60;;;;;;5019139;28;20339;-59
2024/01/12 00:17:18;;;;;;;;;;;19.30;46.60;;;;;;5019520;28;19950;-59
2024/01/12 00:19:43;;;;;;;;;;;19.30;46.60;;;;;;5019587;28;20392;-59
2024/01/12 00:22:09;;;;;;;;;;;19.20;46.60;;;;;;5001069;28;19993;-59
2024/01/12 00:24:34;;;;;;;;;;;19.20;46.60;;;;;;5031687;28;19945;-59
2024/01/12 00:27:00;;;;;;;;;;;19.20;46.60;;;;;;5000441;28;19925;-59
2024/01/12 00:29:25;;;;;;;;;;;19.20;46.50;;;;;;5018684;28;19925;-59
2024/01/12 00:31:51;;;;;;;;;;;19.20;46.50;;;;;;5001441;28;20431;-59
2024/01/12 00:34:16;;;;;;;;;;;19.20;46.60;;;;;;5019493;28;19925;-59
2024/01/12 00:36:42;;;;;;;;;;;19.20;46.50;;;;;;5018460;28;20317;-59
2024/01/12 00:39:07;;;;;;;;;;;19.10;46.40;;;;;;5019355;28;20016;-59
2024/01/12 00:41:33;;;;;;;;;;;19.10;46.50;;;;;;5002049;28;19925;-59
2024/01/12 00:43:59;;;;;;;;;;;19.20;46.60;;;;;;5018547;28;19932;-59
2024/01/12 00:46:25;;;;;;;;;;;19.10;46.50;;;;;;5001906;28;20423;-59
2024/01/12 00:48:50;;;;;;;;;;;19.10;46.50;;;;;;5018852;28;19929;-59
2024/01/12 00:51:16;;;;;;;;;;;19.10;46.50;;;;;;5018672;28;19981;-59
2024/01/12 00:53:41;;;;;;;;;;;19.10;46.50;;;;;;5019217;28;19926;-60
2024/01/12 00:56:07;;;;;;;;;;;19.10;46.50;;;;;;5019188;28;20288;-59
2024/01/12 00:58:33;;;;;;;;;;;19.10;46.50;;;;;;5018581;28;20023;-59
2024/01/12 01:00:58;;;;;;;;;;;19.10;46.50;;;;;;5033678;28;20019;-59
2024/01/12 01:03:24;;;;;;;;;;;19.10;46.40;;;;;;5037401;28;20056;-59
2024/01/12 01:05:49;;;;;;;;;;;19.10;46.50;;;;;;5051692;28;19964;-59
2024/01/12 01:08:15;;;;;;;;;;;19.10;46.50;;;;;;5035637;28;20450;-59
2024/01/12 01:10:41;;;;;;;;;;;19.10;46.50;;;;;;5035296;28;20016;-59
2024/01/12 01:13:07;;;;;;;;;;;19.10;46.50;;;;;;5035617;28;19925;-59
2024/01/12 01:15:32;;;;;;;;;;;19.10;46.40;;;;;;5036075;28;19929;-59
2024/01/12 01:17:58;;;;;;;;;;;19.00;46.40;;;;;;5034629;28;19971;-59
2024/01/12 01:20:24;;;;;;;;;;;19.00;46.50;;;;;;5035975;28;19932;-59
2024/01/12 01:22:49;;;;;;;;;;;19.00;46.40;;;;;;5035672;28;20285;-60
2024/01/12 01:25:15;;;;;;;;;;;19.00;46.50;;;;;;5034535;28;20291;-59
2024/01/12 01:27:40;;;;;;;;;;;19.00;46.50;;;;;;5017586;28;19925;-59
2024/01/12 01:30:07;;;;;;;;;;;19.00;46.40;;;;;;5035167;28;19925;-59
2024/01/12 01:32:32;;;;;;;;;;;19.00;46.50;;;;;;5034541;28;19932;-59
2024/01/12 01:34:58;;;;;;;;;;;19.00;46.40;;;;;;5035080;28;19926;-59
2024/01/12 01:37:23;;;;;;;;;;;19.00;46.40;;;;;;5035293;28;19940;-59
2024/01/12 01:39:49;;;;;;;;;;;19.00;46.40;;;;;;5034614;28;19925;-59
2024/01/12 01:42:14;;;;;;;;;;;19.00;46.40;;;;;;5035109;28;19952;-59
2024/01/12 01:44:40;;;;;;;;;;;19.00;46.40;;;;;;5017432;28;19926;-59
2024/01/12 01:47:05;;;;;;;;;;;19.00;46.40;;;;;;5038218;28;19979;-60
2024/01/12 01:49:30;;;;;;;;;;;19.00;46.40;;;;;;5045913;28;20360;-59
2024/01/12 01:51:56;;;;;;;;;;;19.00;46.40;;;;;;5054996;28;19971;-59
2024/01/12 01:54:22;;;;;;;;;;;19.00;46.40;;;;;;5053623;28;19924;-59
2024/01/12 01:56:47;;;;;;;;;;;19.00;46.40;;;;;;5054617;28;19925;-59
2024/01/12 01:59:13;;;;;;;;;;;19.00;46.40;;;;;;5019542;28;19967;-59
2024/01/12 02:01:38;;;;;;;;;;;19.00;46.40;;;;;;5014314;28;19925;-59
2024/01/12 02:04:04;;;;;;;;;;;19.00;46.40;;;;;;5014538;28;19933;-59
2024/01/12 02:06:29;;;;;;;;;;;19.00;46.40;;;;;;5014949;28;19940;-59
2024/01/12 02:08:55;;;;;;;;;;;19.00;46.40;;;;;;5014576;28;19929;-59
2024/01/12 02:11:20;;;;;;;;;;;19.00;46.40;;;;;;5014762;28;19968;-59
2024/01/12 02:13:46;;;;;;;;;;;19.00;46.40;;;;;;5013868;28;19926;-60
2024/01/12 02:16:11;;;;;;;;;;;19.00;46.40;;;;;;5030825;28;20352;-59
2024/01/12 02:18:37;;;;;;;;;;;19.00;46.40;;;;;;5017167;28;19925;-59
2024/01/12 02:21:02;;;;;;;;;;;19.00;46.40;;;;;;5033835;28;19925;-59
2024/01/12 02:23:27;;;;;;;;;;;19.00;46.40;;;;;;5016658;28;19925;-59
2024/01/12 02:25:53;;;;;;;;;;;19.00;46.40;;;;;;5015473;28;20498;-59
2024/01/12 02:28:18;;;;;;;;;;;19.00;46.50;;;;;;5014429;28;19925;-59
2024/01/12 02:30:44;;;;;;;;;;;19.00;46.40;;;;;;5015885;28;19929;-59
2024/01/12 02:33:09;;;;;;;;;;;19.10;46.50;;;;;;5034053;28;19960;-59
2024/01/12 02:35:35;;;;;;;;;;;19.00;47.10;;;;;;5033562;28;20003;-59
2024/01/12 02:38:00;;;;;;;;;;;19.00;46.40;;;;;;5033638;28;19921;-59
2024/01/12 02:40:26;;;;;;;;;;;19.00;46.40;;;;;;5033581;28;19925;-59
2024/01/12 02:42:51;;;;;;;;;;;19.00;46.40;;;;;;5015432;28;20355;-59
2024/01/12 02:45:17;;;;;;;;;;;19.00;46.40;;;;;;5034024;28;19921;-59
2024/01/12 02:47:43;;;;;;;;;;;19.00;46.40;;;;;;5033991;28;20438;-59
2024/01/12 02:50:08;;;;;;;;;;;19.00;46.40;;;;;;5032880;28;19925;-59
2024/01/12 02:52:35;;;;;;;;;;;19.00;46.40;;;;;;5033538;28;19921;-59
2024/01/12 02:55:01;;;;;;;;;;;19.00;46.40;;;;;;5033525;28;19925;-59
2024/01/12 02:57:27;;;;;;;;;;;19.00;46.40;;;;;;5033016;28;19928;-59
2024/01/12 02:59:52;;;;;;;;;;;19.00;46.40;;;;;;5032998;28;19929;-59
2024/01/12 03:02:18;;;;;;;;;;;19.00;46.40;;;;;;5033253;28;20012;-59
2024/01/12 03:04:43;;;;;;;;;;;19.00;46.40;;;;;;5047365;28;19928;-60
2024/01/12 03:07:09;;;;;;;;;;;19.00;46.40;;;;;;5052554;28;19925;-59
2024/01/12 03:09:34;;;;;;;;;;;19.00;46.40;;;;;;5042244;28;19929;-59
2024/01/12 03:12:00;;;;;;;;;;;19.00;46.50;;;;;;5014770;28;19972;-59
2024/01/12 03:14:25;;;;;;;;;;;19.00;46.40;;;;;;5033393;28;19925;-59
2024/01/12 03:16:51;;;;;;;;;;;19.00;46.40;;;;;;5032636;28;19975;-59
2024/01/12 03:19:16;;;;;;;;;;;19.00;46.40;;;;;;5015845;28;19964;-59
2024/01/12 03:21:41;;;;;;;;;;;19.00;46.40;;;;;;5015122;28;19925;-59
2024/01/12 03:24:07;;;;;;;;;;;19.00;46.50;;;;;;5032371;28;19944;-60
2024/01/12 03:26:37;;;;;;;;;;;19.00;46.40;;;;;;5033109;28;19925;-60
2024/01/12 03:29:02;;;;;;;;;;;19.00;46.50;;;;;;5015108;28;19978;-59
2024/01/12 03:31:28;;;;;;;;;;;19.00;46.40;;;;;;5032491;28;19929;-59
2024/01/12 03:33:53;;;;;;;;;;;19.00;46.40;;;;;;5015378;28;19964;-59
2024/01/12 03:36:19;;;;;;;;;;;19.00;46.50;;;;;;5033362;28;19932;-59
2024/01/12 03:38:44;;;;;;;;;;;19.00;46.40;;;;;;5031589;28;19929;-59
2024/01/12 03:41:10;;;;;;;;;;;19.00;46.40;;;;;;5032990;28;20304;-59
2024/01/12 03:43:35;;;;;;;;;;;19.00;46.50;;;;;;5032933;28;19932;-59
2024/01/12 03:46:01;;;;;;;;;;;19.00;46.50;;;;;;5014751;28;20007;-59
2024/01/12 03:48:27;;;;;;;;;;;19.00;46.50;;;;;;5032544;28;19932;-59
2024/01/12 03:50:52;;;;;;;;;;;19.00;46.40;;;;;;5015119;28;19987;-59
2024/01/12 03:53:18;;;;;;;;;;;19.00;46.40;;;;;;5032454;28;19983;-59
2024/01/12 03:55:43;;;;;;;;;;;19.00;46.40;;;;;;5034902;28;20426;-59
2024/01/12 03:58:09;;;;;;;;;;;19.00;46.50;;;;;;5052579;28;20368;-59
2024/01/12 04:00:34;;;;;;;;;;;19.00;46.40;;;;;;5051962;28;19928;-59
2024/01/12 04:03:00;;;;;;;;;;;19.00;46.40;;;;;;5052879;28;19971;-60
2024/01/12 04:05:25;;;;;;;;;;;19.00;46.50;;;;;;5035102;28;20462;-59
2024/01/12 04:07:51;;;;;;;;;;;19.00;46.40;;;;;;5051891;28;19925;-60
2024/01/12 04:10:16;;;;;;;;;;;19.10;46.50;;;;;;5052953;28;20015;-59
2024/01/12 04:12:42;;;;;;;;;;;19.00;46.40;;;;;;5052727;28;19970;-59
2024/01/12 04:15:11;;;;;;;;;;;19.10;46.50;;;;;;5051712;28;20459;-59
2024/01/12 04:17:37;;;;;;;;;;;19.10;46.40;;;;;;5045054;28;20319;-59
2024/01/12 04:20:02;;;;;;;;;;;19.10;46.40;;;;;;5015305;28;19978;-59
2024/01/12 04:22:28;;;;;;;;;;;19.10;46.40;;;;;;5031715;28;20353;-59
2024/01/12 04:24:53;;;;;;;;;;;19.10;46.40;;;;;;5032326;28;19972;-59
2024/01/12 04:27:21;;;;;;;;;;;19.10;46.40;;;;;;5031289;28;21583;-59
2024/01/12 04:29:46;;;;;;;;;;;19.10;46.40;;;;;;5032867;28;19967;-59
2024/01/12 04:32:12;;;;;;;;;;;19.10;46.40;;;;;;5032411;28;19983;-59
2024/01/12 04:34:37;;;;;;;;;;;19.20;46.40;;;;;;5014460;28;20431;-59
2024/01/12 04:37:03;;;;;;;;;;;19.20;46.40;;;;;;5032291;28;19969;-59
2024/01/12 04:39:28;;;;;;;;;;;19.20;46.40;;;;;;5035532;28;19925;-59
2024/01/12 04:41:54;;;;;;;;;;;19.20;46.40;;;;;;5035608;28;19929;-59
2024/01/12 04:44:19;;;;;;;;;;;19.20;46.40;;;;;;5035901;28;19929;-59
2024/01/12 04:46:45;;;;;;;;;;;19.20;46.40;;;;;;5036203;28;20020;-59
2024/01/12 04:49:10;;;;;;;;;;;19.20;46.40;;;;;;5017560;28;19931;-59
2024/01/12 04:51:36;;;;;;;;;;;19.20;46.40;;;;;;5036373;28;19925;-59
2024/01/12 04:54:01;;;;;;;;;;;19.20;46.40;;;;;;5036227;28;19979;-59
2024/01/12 04:56:27;;;;;;;;;;;19.30;46.40;;;;;;5035715;28;19932;-59
2024/01/12 04:58:52;;;;;;;;;;;19.30;46.40;;;;;;5035898;28;20288;-59
2024/01/12 05:01:18;;;;;;;;;;;19.30;46.40;;;;;;5026146;28;20028;-59
2024/01/12 05:03:43;;;;;;;;;;;19.30;46.40;;;;;;5017829;28;19925;-59
2024/01/12 05:06:09;;;;;;;;;;;19.30;46.30;;;;;;5034940;28;19925;-59
2024/01/12 05:08:34;;;;;;;;;;;19.30;46.40;;;;;;5034461;28;19925;-59
2024/01/12 05:11:00;;;;;;;;;;;19.30;46.40;;;;;;5035008;28;19925;-59
2024/01/12 05:13:25;;;;;;;;;;;19.30;46.40;;;;;;5035597;28;19964;-59
2024/01/12 05:15:51;;;;;;;;;;;19.30;46.30;;;;;;5035573;28;19925;-59
2024/01/12 05:18:16;;;;;;;;;;;19.40;46.40;;;;;;5035056;28;20388;-59
2024/01/12 05:20:42;;;;;;;;;;;19.40;46.40;;;;;;5035819;28;19925;-59
2024/01/12 05:23:09;;;;;;;;;;;19.40;46.40;;;;;;5035239;28;19925;-59
2024/01/12 05:25:34;;;;;;;;;;;19.40;46.30;;;;;;5034778;28;20377;-59
2024/01/12 05:28:00;;;;;;;;;;;19.40;46.30;;;;;;5035347;28;19925;-59
2024/01/12 05:30:25;;;;;;;;;;;19.40;46.30;;;;;;5035204;28;19965;-59
2024/01/12 05:32:51;;;;;;;;;;;19.40;46.40;;;;;;5017379;28;19928;-59
2024/01/12 05:35:16;;;;;;;;;;;19.40;47.00;;;;;;5017589;28;19925;-59
2024/01/12 05:37:42;;;;;;;;;;;19.40;46.30;;;;;;5034629;28;20376;-59
2024/01/12 05:40:08;;;;;;;;;;;19.40;46.30;;;;;;5048989;28;19931;-59
2024/01/12 05:42:33;;;;;;;;;;;19.40;46.30;;;;;;5055139;28;20388;-59
2024/01/12 05:44:59;;;;;;;;;;;19.50;46.30;;;;;;5036231;28;19925;-59
2024/01/12 05:47:24;;;;;;;;;;;19.50;46.30;;;;;;5055138;28;19929;-60
2024/01/12 05:49:50;;;;;;;;;;;19.50;46.30;;;;;;5032236;28;20021;-59
2024/01/12 05:52:15;;;;;;;;;;;19.50;46.40;;;;;;5014233;28;20359;-59
2024/01/12 05:54:41;;;;;;;;;;;19.50;46.30;;;;;;5017630;28;20019;-59
2024/01/12 05:57:06;;;;;;;;;;;19.50;46.30;;;;;;5026429;28;20328;-59
2024/01/12 05:59:33;;;;;;;;;;;19.50;46.40;;;;;;5016893;28;19988;-59
2024/01/12 06:01:58;;;;;;;;;;;19.50;46.30;;;;;;5013292;28;19925;-59
2024/01/12 06:04:24;;;;;;;;;;;19.50;46.30;;;;;;5015450;28;20028;-59
2024/01/12 06:06:49;;;;;;;;;;;19.50;46.30;;;;;;5014231;28;20359;-59
2024/01/12 06:09:15;;;;;;;;;;;19.50;47.00;;;;;;5014730;28;19929;-59
2024/01/12 06:11:43;;;;;;;;;;;19.50;46.30;;;;;;5014891;28;19926;-59
2024/01/12 06:14:09;;;;;;;;;;;19.50;46.30;;;;;;5000075;28;19932;-59
2024/01/12 06:16:34;;;;;;;;;;;19.50;46.30;;;;;;5034701;28;19925;-59
2024/01/12 06:19:00;;;;;;;;;;;19.50;46.30;;;;;;5034395;28;20300;-59
2024/01/12 06:21:26;;;;;;;;;;;19.60;46.40;;;;;;5034127;28;19933;-59
2024/01/12 06:23:51;;;;;;;;;;;19.60;46.30;;;;;;5034560;28;19925;-59
2024/01/12 06:26:17;;;;;;;;;;;19.60;46.40;;;;;;5034104;28;19925;-59
2024/01/12 06:28:42;;;;;;;;;;;19.60;46.30;;;;;;5032513;28;19932;-59
2024/01/12 06:31:08;;;;;;;;;;;19.60;46.30;;;;;;5018451;28;20016;-59
2024/01/12 06:33:34;;;;;;;;;;;19.60;46.30;;;;;;5014532;28;20385;-59
2024/01/12 06:36:02;;;;;;;;;;;19.60;46.30;;;;;;5013097;28;19972;-59
2024/01/12 06:38:28;;;;;;;;;;;19.60;46.30;;;;;;5013457;28;19925;-59
2024/01/12 06:40:53;;;;;;;;;;;19.60;46.30;;;;;;5013278;28;19991;-59
2024/01/12 06:43:19;;;;;;;;;;;19.60;46.30;;;;;;5014013;28;19972;-59
2024/01/12 06:45:44;;;;;;;;;;;19.70;46.40;;;;;;5014524;28;20038;-59
2024/01/12 06:48:10;;;;;;;;;;;19.70;46.30;;;;;;5013319;28;20408;-59
2024/01/12 06:50:35;;;;;;;;;;;19.70;46.30;;;;;;5014184;28;19929;-59
2024/01/12 06:53:04;;;;;;;;;;;19.70;46.30;;;;;;5014027;28;20496;-59
2024/01/12 06:55:29;;;;;;;;;;;19.70;46.30;;;;;;5013743;28;19929;-59
2024/01/12 06:57:55;;;;;;;;;;;19.70;46.40;;;;;;4996505;28;20297;-59
2024/01/12 07:00:20;;;;;;;;;;;19.70;46.30;;;;;;5020857;28;19925;-60
2024/01/12 07:02:46;;;;;;;;;;;19.70;46.30;;;;;;5033004;28;19932;-59
2024/01/12 07:05:13;;;;;;;;;;;19.70;46.30;;;;;;5016078;28;20024;-61
2024/01/12 07:07:42;;;;;;;;;;;19.70;46.30;;;;;;5033783;28;19968;-60
2024/01/12 07:10:08;;;;;;;;;;;19.70;46.30;;;;;;5032675;28;20463;-60
2024/01/12 07:12:34;;;;;;;;;;;19.70;46.30;;;;;;5015655;28;19925;-60
2024/01/12 07:14:59;;;;;;;;;;;19.70;46.30;;;;;;5033101;28;19931;-60
2024/01/12 07:17:25;;;;;;;;;;;19.70;46.30;;;;;;5032984;28;19930;-59
2024/01/12 07:19:50;;;;;;;;;;;19.70;46.30;;;;;;5012018;28;19978;-61
2024/01/12 07:22:16;;;;;;;;;;;19.70;47.10;;;;;;5012965;28;19930;-61
2024/01/12 07:24:41;;;;;;;;;;;19.80;46.70;;;;;;5012480;28;20056;-60
2024/01/12 07:27:07;;;;;;;;;;;19.80;46.70;;;;;;5013534;28;19925;-60
2024/01/12 07:29:32;;;;;;;;;;;19.80;46.80;;;;;;5013190;28;19948;-60
2024/01/12 07:31:58;;;;;;;;;;;19.80;46.90;;;;;;4995075;28;19936;-59
2024/01/12 07:34:24;;;;;;;;;;;19.80;46.90;;;;;;5013716;28;19925;-61
2024/01/12 07:36:49;;;;;;;;;;;19.80;47.00;;;;;;5013530;28;20048;-61
2024/01/12 07:39:15;;;;;;;;;;;19.90;47.10;;;;;;5012316;28;20401;-60
2024/01/12 07:41:41;;;;;;;;;;;19.90;47.20;;;;;;5012980;28;19925;-60
2024/01/12 07:44:07;;;;;;;;;;;19.90;47.30;;;;;;5012125;28;20285;-60
2024/01/12 07:46:33;;;;;;;;;;;19.90;47.40;;;;;;5013350;28;20012;-58
2024/01/12 07:48:59;;;;;;;;;;;19.90;47.50;;;;;;5016569;28;20373;-60
2024/01/12 07:51:25;;;;;;;;;;;19.90;47.50;;;;;;5032344;28;19991;-60
2024/01/12 07:53:51;;;;;;;;;;;19.90;47.70;;;;;;5032309;28;19929;-60
2024/01/12 07:56:17;;;;;;;;;;;19.90;47.80;;;;;;5032932;28;20368;-59
2024/01/12 07:58:42;;;;;;;;;;;19.90;47.70;;;;;;5031818;28;19933;-60
2024/01/12 08:01:11;;;;;;;;;;;20.00;47.90;;;;;;5010996;28;20453;-59
2024/01/12 08:03:37;;;;;;;;;;;19.90;47.90;;;;;;5030255;28;19925;-59
2024/01/12 08:06:02;;;;;;;;;;;20.00;48.00;;;;;;5031423;28;19925;-60
2024/01/12 08:08:28;;;;;;;;;;;20.00;47.70;;;;;;5032409;28;19925;-59
2024/01/12 08:10:53;;;;;;;;;;;20.00;47.70;;;;;;5032938;28;19933;-59
2024/01/12 08:13:19;;;;;;;;;;;20.00;47.70;;;;;;5017043;28;20265;-61
2024/01/12 08:15:44;;;;;;;;;;;20.00;47.70;;;;;;5017948;28;20285;-60
2024/01/12 08:18:10;;;;;;;;;;;20.00;47.90;;;;;;5035907;28;20024;-59
2024/01/12 08:20:35;;;;;;;;;;;20.00;48.00;;;;;;5035760;28;20020;-60
2024/01/12 08:23:01;;;;;;;;;;;20.00;48.10;;;;;;5036086;28;19948;-59
2024/01/12 08:25:26;;;;;;;;;;;20.00;48.20;;;;;;5036320;28;19929;-60
2024/01/12 08:27:52;;;;;;;;;;;20.00;48.20;;;;;;5017312;28;19925;-59
2024/01/12 08:30:17;;;;;;;;;;;20.00;48.10;;;;;;5052635;28;19924;-59
2024/01/12 08:32:43;;;;;;;;;;;20.00;48.00;;;;;;5044825;28;20009;-60
2024/01/12 08:35:08;;;;;;;;;;;20.10;48.00;;;;;;5035173;28;19925;-60
2024/01/12 08:37:33;;;;;;;;;;;20.10;47.90;;;;;;5018256;28;20050;-59
2024/01/12 08:39:59;;;;;;;;;;;20.00;47.80;;;;;;5035758;28;19933;-59
2024/01/12 08:42:24;;;;;;;;;;;20.00;47.80;;;;;;5035292;28;19964;-60
2024/01/12 08:44:51;;;;;;;;;;;20.00;47.80;;;;;;5018037;28;19926;-59
2024/01/12 08:47:19;;;;;;;;;;;20.00;47.80;;;;;;5035780;28;19995;-59
2024/01/12 08:49:44;;;;;;;;;;;20.00;47.80;;;;;;5040128;28;19979;-59
2024/01/12 08:52:10;;;;;;;;;;;20.00;47.80;;;;;;5055870;28;19925;-59
2024/01/12 08:54:36;;;;;;;;;;;20.00;47.80;;;;;;5055419;28;20355;-60
2024/01/12 08:57:01;;;;;;;;;;;20.00;47.80;;;;;;5056023;28;19924;-59
2024/01/12 08:59:27;;;;;;;;;;;20.00;47.80;;;;;;5056116;28;19925;-59
2024/01/12 09:01:53;;;;;;;;;;;20.00;47.80;;;;;;5054847;28;19987;-59
2024/01/12 09:04:19;;;;;;;;;;;20.00;47.80;;;;;;5056144;28;19932;-59
2024/01/12 09:06:44;;;;;;;;;;;19.90;48.50;;;;;;5037781;28;19924;-59
2024/01/12 09:09:10;;;;;;;;;;;19.90;47.90;;;;;;5054576;28;20380;-59
2024/01/12 09:11:36;;;;;;;;;;;19.90;47.90;;;;;;5056064;28;19936;-59
2024/01/12 09:14:02;;;;;;;;;;;19.90;48.00;;;;;;5037776;28;19925;-59
2024/01/12 09:16:27;;;;;;;;;;;19.90;48.00;;;;;;5055072;28;19931;-59
2024/01/12 09:18:53;;;;;;;;;;;19.90;48.00;;;;;;5055482;28;19925;-59
2024/01/12 09:21:18;;;;;;;;;;;19.90;48.00;;;;;;5037687;28;19935;-59
2024/01/12 09:23:44;;;;;;;;;;;19.90;48.00;;;;;;5036249;28;20007;-58
2024/01/12 09:26:12;;;;;;;;;;;19.90;48.00;;;;;;5054955;28;19925;-59
2024/01/12 09:28:38;;;;;;;;;;;19.90;48.00;;;;;;5055433;28;19979;-59
2024/01/12 09:31:04;;;;;;;;;;;20.00;47.90;;;;;;5054516;28;20014;-59
2024/01/12 09:33:30;;;;;;;;;;;19.90;48.50;;;;;;5055755;28;20365;-59
2024/01/12 09:35:55;;;;;;;;;;;20.00;47.90;;;;;;5055320;28;20373;-60
2024/01/12 09:38:21;;;;;;;;;;;20.00;47.80;;;;;;5054867;28;19932;-59
2024/01/12 09:40:47;;;;;;;;;;;20.00;47.80;;;;;;5055504;28;19928;-59
2024/01/12 09:43:13;;;;;;;;;;;20.00;47.80;;;;;;5054829;28;20433;-59
2024/01/12 09:45:40;;;;;;;;;;;20.00;47.80;;;;;;5036971;28;19948;-59
2024/01/12 09:48:07;;;;;;;;;;;20.00;47.80;;;;;;5037106;28;19925;-60
2024/01/12 09:50:32;;;;;;;;;;;20.00;47.80;;;;;;5055282;28;19924;-59
2024/01/12 09:52:58;;;;;;;;;;;20.00;47.80;;;;;;5020517;28;20372;-59
2024/01/12 09:55:23;;;;;;;;;;;20.00;47.70;;;;;;5015621;28;19977;-59
2024/01/12 09:57:49;;;;;;;;;;;20.00;47.70;;;;;;5014695;28;20365;-59
2024/01/12 10:00:15;;;;;;;;;;;20.00;47.80;;;;;;4997555;28;19929;-59
2024/01/12 10:02:40;;;;;;;;;;;20.00;47.70;;;;;;4997806;28;20385;-59
2024/01/12 10:05:09;;;;;;;;;;;20.00;47.70;;;;;;4996906;28;19925;-59
2024/01/12 10:07:34;;;;;;;;;;;20.00;47.70;;;;;;5015206;28;20332;-59
2024/01/12 10:10:00;;;;;;;;;;;20.00;47.70;;;;;;4989951;28;19925;-59
2024/01/12 10:12:25;;;;;;;;;;;20.00;47.70;;;;;;5034386;28;19936;-59
2024/01/12 10:15:00;;;;;;;;;;;19.90;47.70;;;;;;5034562;28;19932;-59
2024/01/12 10:17:26;;;;;;;;;;;20.00;47.70;;;;;;5034926;28;19936;-59
2024/01/12 10:19:51;;;;;;;;;;;19.90;47.70;;;;;;5033998;28;20300;-60
2024/01/12 10:22:17;;;;;;;;;;;19.90;47.70;;;;;;5034914;28;20291;-59
2024/01/12 10:24:42;;;;;;;;;;;19.90;47.70;;;;;;5034542;28;20048;-59
2024/01/12 10:27:08;;;;;;;;;;;19.90;47.70;;;;;;5033566;28;19983;-60
2024/01/12 10:29:38;;;;;;;;;;;19.90;47.70;;;;;;5034293;28;20281;-59
2024/01/12 10:32:04;;;;;;;;;;;19.90;47.70;;;;;;5034237;28;19951;-59
2024/01/12 10:34:33;;;;;;;;;;;19.90;47.70;;;;;;5033803;28;19968;-60
2024/01/12 10:36:58;;;;;;;;;;;19.90;47.70;;;;;;5034273;28;19937;-59
2024/01/12 10:39:25;;;;;;;;;;;19.90;47.60;;;;;;5023813;28;19926;-59
2024/01/12 10:41:50;;;;;;;;;;;19.90;47.60;;;;;;4980519;28;19932;-59
2024/01/12 10:44:18;;;;;;;;;;;19.90;47.60;;;;;;5012156;28;19930;-59
2024/01/12 10:46:48;;;;;;;;;;;19.90;47.60;;;;;;5014388;28;19929;-59
2024/01/12 10:49:20;;;;;;;;;;;19.90;47.60;;;;;;4995409;28;19926;-59
2024/01/12 10:52:04;;;;;;;;;;;19.90;47.60;;;;;;5022651;28;19925;-60
2024/01/12 10:54:33;;;;;;;;;;;19.90;47.60;;;;;;5015609;28;19929;-59
2024/01/12 10:56:59;;;;;;;;;;;19.90;47.60;;;;;;5033865;28;19925;-59
2024/01/12 10:59:25;;;;;;;;;;;19.90;47.60;;;;;;5033854;28;19931;-59
2024/01/12 11:01:51;;;;;;;;;;;19.90;47.60;;;;;;5033304;28;19995;-59
2024/01/12 11:04:17;;;;;;;;;;;19.90;47.50;;;;;;5016226;28;20396;-60
2024/01/12 11:06:45;;;;;;;;;;;19.90;47.50;;;;;;5015934;28;19947;-59
2024/01/12 11:09:12;;;;;;;;;;;19.90;47.50;;;;;;5015020;28;19929;-59
2024/01/12 11:11:46;;;;;;;;;;;19.90;47.50;;;;;;5033657;28;19964;-59
2024/01/12 11:14:13;;;;;;;;;;;19.90;47.50;;;;;;5015569;28;19925;-59
2024/01/12 11:16:38;;;;;;;;;;;19.90;47.50;;;;;;5002400;28;20368;-60
2024/01/12 11:19:11;;;;;;;;;;;19.90;47.40;;;;;;5013425;28;20524;-60
2024/01/12 11:21:40;;;;;;;;;;;19.90;47.40;;;;;;4996155;28;19929;-59
2024/01/12 11:24:06;;;;;;;;;;;19.90;47.00;;;;;;4995643;28;19926;-60
2024/01/12 11:26:32;;;;;;;;;;;19.90;47.10;;;;;;4996185;28;19925;-60
2024/01/12 11:28:58;;;;;;;;;;;19.90;47.20;;;;;;5015218;28;19926;-60
2024/01/12 11:31:25;;;;;;;;;;;19.90;47.50;;;;;;5032380;28;19925;-60
2024/01/12 11:33:53;;;;;;;;;;;19.90;47.70;;;;;;5015541;28;20274;-60
2024/01/12 11:36:18;;;;;;;;;;;19.90;47.60;;;;;;5032854;28;20016;-60
2024/01/12 11:38:44;;;;;;;;;;;20.00;47.60;;;;;;5015575;28;20003;-60
2024/01/12 11:41:11;;;;;;;;;;;20.00;47.60;;;;;;5015353;28;19925;-60
2024/01/12 11:43:36;;;;;;;;;;;20.00;47.60;;;;;;5032502;28;19936;-60
2024/01/12 11:46:02;;;;;;;;;;;20.00;47.70;;;;;;5033002;28;19925;-60
2024/01/12 11:48:27;;;;;;;;;;;20.00;47.70;;;;;;5037194;28;20296;-60
2024/01/12 11:50:53;;;;;;;;;;;20.00;47.70;;;;;;5034434;28;19948;-60
2024/01/12 11:53:18;;;;;;;;;;;20.00;47.70;;;;;;5052801;28;20010;-60
2024/01/12 11:55:44;;;;;;;;;;;20.00;47.70;;;;;;5035418;28;19932;-60
2024/01/12 11:58:11;;;;;;;;;;;20.00;47.70;;;;;;5051824;28;19924;-60
2024/01/12 12:00:37;;;;;;;;;;;20.00;47.70;;;;;;5053024;28;19928;-60
2024/01/12 12:03:02;;;;;;;;;;;20.00;47.70;;;;;;5052892;28;19932;-60
2024/01/12 12:05:28;;;;;;;;;;;20.00;47.70;;;;;;5052036;28;20012;-60
2024/01/12 12:07:54;;;;;;;;;;;19.90;47.70;;;;;;5034619;28;19924;-60
2024/01/12 12:10:19;;;;;;;;;;;19.90;47.70;;;;;;5053026;28;20372;-60
2024/01/12 12:12:45;;;;;;;;;;;20.00;47.80;;;;;;5052145;28;20368;-60
2024/01/12 12:15:14;;;;;;;;;;;20.00;47.80;;;;;;5052334;28;19925;-60
2024/01/12 12:17:44;;;;;;;;;;;20.00;47.90;;;;;;5034995;28;20296;-60
2024/01/12 12:20:12;;;;;;;;;;;20.00;47.80;;;;;;5052001;28;19920;-60
2024/01/12 12:22:41;;;;;;;;;;;20.00;47.90;;;;;;5035636;28;19925;-60
2024/01/12 12:25:10;;;;;;;;;;;20.00;47.90;;;;;;5052089;28;19974;-60
2024/01/12 12:27:39;;;;;;;;;;;20.00;47.90;;;;;;5052180;28;19933;-60
2024/01/12 12:30:08;;;;;;;;;;;20.00;47.90;;;;;;5052235;28;19928;-60
2024/01/12 12:32:33;;;;;;;;;;;20.00;47.90;;;;;;5032573;28;20329;-60
2024/01/12 12:34:59;;;;;;;;;;;20.00;47.90;;;;;;5015810;28;20440;-60
2024/01/12 12:37:24;;;;;;;;;;;20.00;47.90;;;;;;5032798;28;19921;-60
2024/01/12 12:39:50;;;;;;;;;;;20.00;47.90;;;;;;5031854;28;20747;-60
2024/01/12 12:42:15;;;;;;;;;;;20.00;47.90;;;;;;5015035;28;19925;-60
2024/01/12 12:44:41;;;;;;;;;;;20.00;48.70;;;;;;5031914;28;20392;-59
2024/01/12 12:47:07;;;;;;;;;;;20.00;47.90;;;;;;5031272;28;20006;-59
2024/01/12 12:49:42;;;;;;;;;;;20.10;48.20;;;;;;5014691;28;19925;-61
2024/01/12 12:52:07;;;;;;;;;;;20.10;48.30;;;;;;5014755;28;19925;-60
2024/01/12 12:54:33;;;;;;;;;;;20.10;48.40;;;;;;5014177;28;19932;-60
2024/01/12 12:56:59;;;;;;;;;;;20.10;48.50;;;;;;5032287;28;19929;-60
2024/01/12 12:59:25;;;;;;;;;;;20.10;48.60;;;;;;5033397;28;19968;-59
2024/01/12 13:01:51;;;;;;;;;;;20.10;48.50;;;;;;5035336;28;19925;-58
2024/01/12 13:04:16;;;;;;;;;;;20.10;48.50;;;;;;5030624;28;19965;-60
2024/01/12 13:06:42;;;;;;;;;;;20.10;48.50;;;;;;5033417;28;19976;-60
2024/01/12 13:09:08;;;;;;;;;;;20.10;48.70;;;;;;5016523;28;19925;-61
2024/01/12 13:11:33;;;;;;;;;;;20.10;48.70;;;;;;5035356;28;19932;-60
2024/01/12 13:13:59;;;;;;;;;;;20.20;48.80;;;;;;5015962;28;19932;-61
2024/01/12 13:16:24;;;;;;;;;;;20.10;48.80;;;;;;5034763;28;19937;-60
2024/01/12 13:18:51;;;;;;;;;;;20.10;48.80;;;;;;5035423;28;19929;-60
2024/01/12 13:21:17;;;;;;;;;;;20.20;48.90;;;;;;5035859;28;19987;-61
2024/01/12 13:23:42;;;;;;;;;;;20.20;48.90;;;;;;5035211;28;20032;-61
2024/01/12 13:26:08;;;;;;;;;;;20.20;48.80;;;;;;5017417;28;20377;-59
2024/01/12 13:28:33;;;;;;;;;;;20.20;48.90;;;;;;5035520;28;19965;-59
2024/01/12 13:30:59;;;;;;;;;;;20.20;48.80;;;;;;5034531;28;19925;-59
2024/01/12 13:33:25;;;;;;;;;;;20.20;48.60;;;;;;5017819;28;20387;-60
2024/01/12 13:35:51;;;;;;;;;;;20.20;48.50;;;;;;5034986;28;20384;-60
2024/01/12 13:38:16;;;;;;;;;;;20.20;48.80;;;;;;5035483;28;19982;-59
2024/01/12 13:40:42;;;;;;;;;;;20.20;48.90;;;;;;5034216;28;19921;-59
2024/01/12 13:43:07;;;;;;;;;;;20.20;48.90;;;;;;5032535;28;19925;-59
2024/01/12 13:45:35;;;;;;;;;;;20.20;49.10;;;;;;5034748;28;20049;-59
2024/01/12 13:48:02;;;;;;;;;;;20.20;49.80;;;;;;5034888;28;19936;-59
2024/01/12 13:50:27;;;;;;;;;;;20.20;49.10;;;;;;5017006;28;20369;-59
2024/01/12 13:52:53;;;;;;;;;;;20.20;49.10;;;;;;5017132;28;19927;-59
2024/01/12 13:55:19;;;;;;;;;;;20.20;49.20;;;;;;5035199;28;20464;-60
2024/01/12 13:57:45;;;;;;;;;;;20.20;49.20;;;;;;5016165;28;19941;-60
2024/01/12 14:00:12;;;;;;;;;;;20.20;49.20;;;;;;5016036;28;20422;-60
2024/01/12 14:02:38;;;;;;;;;;;20.20;49.20;;;;;;5034547;28;19925;-60
2024/01/12 14:05:04;;;;;;;;;;;20.20;49.20;;;;;;5033099;28;19921;-59
2024/01/12 14:07:29;;;;;;;;;;;20.20;49.10;;;;;;5034571;28;19932;-59